createdAt,value
2018-08-11T00:01:37.578Z,19.20
2018-08-11T00:04:06.119Z,19.20
2018-08-11T00:06:34.554Z,19.20
2018-08-11T00:09:03.115Z,19.30
2018-08-11T00:11:31.635Z,19.30
2018-08-11T00:14:00.122Z,19.30
2018-08-11T00:16:28.561Z,19.30
2018-08-11T00:18:57.005Z,19.20
2018-08-11T00:21:25.427Z,19.20
2018-08-11T00:23:53.869Z,19.20
2018-08-11T00:26:22.311Z,19.20
2018-08-11T00:28:50.767Z,19.40
2018-08-11T00:31:19.187Z,19.40
2018-08-11T00:33:47.719Z,19.40
2018-08-11T00:36:16.231Z,19.50
2018-08-11T00:38:44.938Z,19.40
2018-08-11T00:41:13.438Z,19.40
2018-08-11T00:43:41.882Z,19.40
2018-08-11T00:46:10.351Z,19.30
2018-08-11T00:48:38.872Z,19.40
2018-08-11T00:51:07.420Z,19.40
2018-08-11T00:53:35.887Z,19.30
2018-08-11T00:56:04.407Z,19.20
2018-08-11T00:58:32.829Z,19.20
2018-08-11T01:01:01.282Z,19.20
2018-08-11T01:03:30.092Z,19.20
2018-08-11T01:05:58.567Z,19.20
2018-08-11T01:08:27.072Z,19.20
2018-08-11T01:10:55.538Z,19.30
2018-08-11T01:13:23.965Z,19.20
2018-08-11T01:15:52.398Z,19.20
2018-08-11T01:18:20.840Z,19.00
2018-08-11T01:20:49.240Z,19.10
2018-08-11T01:23:17.731Z,19.20
2018-08-11T01:25:46.154Z,19.20
2018-08-11T01:28:14.615Z,19.30
2018-08-11T01:30:43.038Z,19.30
2018-08-11T01:33:11.484Z,19.30
2018-08-11T01:35:39.906Z,19.20
2018-08-11T01:38:08.429Z,19.10
2018-08-11T01:40:36.855Z,19.00
2018-08-11T01:43:05.284Z,19.00
2018-08-11T01:45:33.717Z,19.00
2018-08-11T01:48:02.232Z,19.20
2018-08-11T01:50:30.663Z,19.00
2018-08-11T01:52:59.194Z,18.90
2018-08-11T01:55:27.645Z,19.00
2018-08-11T01:57:56.075Z,19.00
2018-08-11T02:00:24.572Z,19.00
2018-08-11T02:02:53.027Z,18.90
2018-08-11T02:05:21.487Z,18.70
2018-08-11T02:07:49.928Z,18.80
2018-08-11T02:10:20.146Z,18.90
2018-08-11T02:12:49.007Z,19.00
2018-08-11T02:15:17.633Z,19.00
2018-08-11T02:17:46.049Z,19.00
2018-08-11T02:20:15.945Z,18.90
2018-08-11T02:22:45.487Z,19.00
2018-08-11T02:25:13.909Z,19.10
2018-08-11T02:27:42.343Z,19.00
2018-08-11T02:30:14.017Z,19.10
2018-08-11T02:32:42.496Z,19.10
2018-08-11T02:35:11.884Z,19.00
2018-08-11T02:37:40.698Z,18.90
2018-08-11T02:40:10.778Z,18.90
2018-08-11T02:42:39.224Z,19.10
2018-08-11T02:45:09.388Z,19.00
2018-08-11T02:47:37.855Z,19.00
2018-08-11T02:50:08.228Z,19.00
2018-08-11T02:52:36.732Z,18.80
2018-08-11T02:55:05.671Z,18.70
2018-08-11T02:57:34.447Z,18.70
2018-08-11T03:00:02.899Z,18.80
2018-08-11T03:02:31.371Z,18.80
2018-08-11T03:04:59.813Z,18.60
2018-08-11T03:07:28.237Z,18.60
2018-08-11T03:09:56.751Z,18.40
2018-08-11T03:12:25.255Z,18.50
2018-08-11T03:14:53.707Z,18.60
2018-08-11T03:17:22.174Z,18.70
2018-08-11T03:19:50.682Z,18.70
2018-08-11T03:22:19.107Z,18.60
2018-08-11T03:24:47.649Z,18.50
2018-08-11T03:27:16.064Z,18.40
2018-08-11T03:29:44.555Z,18.50
2018-08-11T03:32:13.000Z,18.50
2018-08-11T03:34:41.412Z,18.40
2018-08-11T03:37:09.855Z,18.30
2018-08-11T03:39:38.276Z,18.30
2018-08-11T03:42:06.746Z,18.20
2018-08-11T03:44:35.154Z,18.10
2018-08-11T03:47:03.595Z,18.20
2018-08-11T03:49:32.028Z,18.00
2018-08-11T03:52:00.461Z,18.00
2018-08-11T03:54:28.907Z,17.90
2018-08-11T03:56:57.423Z,17.90
2018-08-11T03:59:25.836Z,18.00
2018-08-11T04:01:54.283Z,18.00
2018-08-11T04:04:22.712Z,18.10
2018-08-11T04:06:51.191Z,18.10
2018-08-11T04:09:19.608Z,18.30
2018-08-11T04:11:48.051Z,18.20
2018-08-11T04:14:16.466Z,18.30
2018-08-11T04:16:44.923Z,18.20
2018-08-11T04:19:13.449Z,18.00
2018-08-11T04:21:42.014Z,17.90
2018-08-11T04:24:10.932Z,17.90
2018-08-11T04:26:39.724Z,18.00
2018-08-11T04:29:08.616Z,18.10
2018-08-11T04:31:37.597Z,18.00
2018-08-11T04:34:06.295Z,18.00
2018-08-11T04:36:34.979Z,17.70
2018-08-11T04:39:03.665Z,17.80
2018-08-11T04:41:32.084Z,17.80
2018-08-11T04:44:00.527Z,17.70
2018-08-11T04:46:29.023Z,17.70
2018-08-11T04:48:57.447Z,17.70
2018-08-11T04:51:25.855Z,17.70
2018-08-11T04:53:54.296Z,17.70
2018-08-11T04:56:23.012Z,17.70
2018-08-11T04:58:51.567Z,17.80
2018-08-11T05:01:19.971Z,17.80
2018-08-11T05:03:48.431Z,17.80
2018-08-11T05:06:16.868Z,17.60
2018-08-11T05:08:45.316Z,17.60
2018-08-11T05:11:13.759Z,17.80
2018-08-11T05:13:42.284Z,17.80
2018-08-11T05:16:10.777Z,17.90
2018-08-11T05:18:39.203Z,17.70
2018-08-11T05:21:07.739Z,17.70
2018-08-11T05:23:36.243Z,17.60
2018-08-11T05:26:04.698Z,17.70
2018-08-11T05:28:33.143Z,17.90
2018-08-11T05:31:01.657Z,17.80
2018-08-11T05:33:30.089Z,17.80
2018-08-11T05:35:58.530Z,17.90
2018-08-11T05:38:26.936Z,17.90
2018-08-11T05:40:55.373Z,17.80
2018-08-11T05:43:23.799Z,17.90
2018-08-11T05:45:52.246Z,18.10
2018-08-11T05:48:20.673Z,18.20
2018-08-11T05:50:49.135Z,18.30
2018-08-11T05:53:17.863Z,18.40
2018-08-11T05:55:46.289Z,18.50
2018-08-11T05:58:14.722Z,18.70
2018-08-11T06:00:43.216Z,18.70
2018-08-11T06:03:11.767Z,18.80
2018-08-11T06:05:40.179Z,19.00
2018-08-11T06:08:08.636Z,19.10
2018-08-11T06:10:37.346Z,19.10
2018-08-11T06:13:05.832Z,19.00
2018-08-11T06:15:34.275Z,19.00
2018-08-11T06:18:02.723Z,19.00
2018-08-11T06:20:31.139Z,19.00
2018-08-11T06:22:59.607Z,19.20
2018-08-11T06:25:28.077Z,19.30
2018-08-11T06:27:56.526Z,19.40
2018-08-11T06:30:24.968Z,19.60
2018-08-11T06:32:53.482Z,19.80
2018-08-11T06:35:21.907Z,19.80
2018-08-11T06:37:50.320Z,20.00
2018-08-11T06:40:18.795Z,19.90
2018-08-11T06:42:47.224Z,19.90
2018-08-11T06:45:15.668Z,20.10
2018-08-11T06:47:44.087Z,20.20
2018-08-11T06:50:12.540Z,20.50
2018-08-11T06:52:47.450Z,20.70
2018-08-11T06:55:15.972Z,20.70
2018-08-11T06:57:44.401Z,20.80
2018-08-11T07:00:12.987Z,20.80
2018-08-11T07:02:41.499Z,21.20
2018-08-11T07:05:10.056Z,21.20
2018-08-11T07:07:38.573Z,21.10
2018-08-11T07:10:06.995Z,21.00
2018-08-11T07:12:35.543Z,20.80
2018-08-11T07:15:04.100Z,20.60
2018-08-11T07:17:32.576Z,20.60
2018-08-11T07:20:01.047Z,20.80
2018-08-11T07:22:29.587Z,21.20
2018-08-11T07:24:58.055Z,21.70
2018-08-11T07:27:26.606Z,21.40
2018-08-11T07:29:55.966Z,21.50
2018-08-11T07:32:24.403Z,21.30
2018-08-11T07:34:52.858Z,21.30
2018-08-11T07:37:21.364Z,21.30
2018-08-11T07:39:49.866Z,21.90
2018-08-11T07:42:18.395Z,22.20
2018-08-11T07:44:46.881Z,22.50
2018-08-11T07:47:15.410Z,22.60
2018-08-11T07:49:44.051Z,22.80
2018-08-11T07:52:12.519Z,22.60
2018-08-11T07:54:41.028Z,23.10
2018-08-11T07:57:09.459Z,22.40
2018-08-11T07:59:37.895Z,22.60
2018-08-11T08:02:06.469Z,22.70
2018-08-11T08:04:35.015Z,22.60
2018-08-11T08:07:03.459Z,23.50
2018-08-11T08:09:31.906Z,24.50
2018-08-11T08:12:00.341Z,25.40
2018-08-11T08:14:28.799Z,25.40
2018-08-11T08:16:57.212Z,26.10
2018-08-11T08:19:25.659Z,25.40
2018-08-11T08:21:54.080Z,24.80
2018-08-11T08:24:22.516Z,24.90
2018-08-11T08:26:50.976Z,25.90
2018-08-11T08:29:19.435Z,25.20
2018-08-11T08:31:47.904Z,23.80
2018-08-11T08:34:16.339Z,23.00
2018-08-11T08:36:44.755Z,24.00
2018-08-11T08:39:13.603Z,23.80
2018-08-11T08:41:42.369Z,23.40
2018-08-11T08:44:10.833Z,23.90
2018-08-11T08:46:39.354Z,24.00
2018-08-11T08:49:07.846Z,24.20
2018-08-11T08:51:36.619Z,23.50
2018-08-11T08:54:05.179Z,22.80
2018-08-11T08:56:33.591Z,23.60
2018-08-11T08:59:02.243Z,23.50
2018-08-11T09:01:30.707Z,23.10
2018-08-11T09:03:59.150Z,22.60
2018-08-11T09:06:27.805Z,23.30
2018-08-11T09:08:56.218Z,25.20
2018-08-11T09:11:24.702Z,26.10
2018-08-11T09:13:53.247Z,26.80
2018-08-11T09:16:21.714Z,27.20
2018-08-11T09:18:50.207Z,26.00
2018-08-11T09:21:18.684Z,26.40
2018-08-11T09:23:47.396Z,28.10
2018-08-11T09:26:15.831Z,27.00
2018-08-11T09:28:44.240Z,26.40
2018-08-11T09:31:12.691Z,25.60
2018-08-11T09:33:42.012Z,26.60
2018-08-11T09:36:10.463Z,27.00
2018-08-11T09:38:38.978Z,26.40
2018-08-11T09:41:07.727Z,28.40
2018-08-11T09:43:36.181Z,29.20
2018-08-11T09:46:04.659Z,27.60
2018-08-11T09:48:33.058Z,25.60
2018-08-11T09:51:01.513Z,24.90
2018-08-11T09:53:29.964Z,24.10
2018-08-11T09:55:58.712Z,23.10
2018-08-11T09:58:27.172Z,22.80
2018-08-11T10:00:56.251Z,22.90
2018-08-11T10:03:25.519Z,23.40
2018-08-11T10:05:54.085Z,24.10
2018-08-11T10:08:22.553Z,25.90
2018-08-11T10:10:51.002Z,25.50
2018-08-11T10:13:19.445Z,25.00
2018-08-11T10:15:47.888Z,25.70
2018-08-11T10:18:16.435Z,25.70
2018-08-11T10:20:44.895Z,25.40
2018-08-11T10:23:13.337Z,25.80
2018-08-11T10:25:41.799Z,27.00
2018-08-11T10:28:10.243Z,27.00
2018-08-11T10:30:38.708Z,27.20
2018-08-11T10:33:07.611Z,25.70
2018-08-11T10:35:36.166Z,24.90
2018-08-11T10:38:04.680Z,23.50
2018-08-11T10:40:33.135Z,24.10
2018-08-11T10:43:01.571Z,24.00
2018-08-11T10:45:30.052Z,26.10
2018-08-11T10:47:58.600Z,27.30
2018-08-11T10:50:27.055Z,27.80
2018-08-11T10:52:55.567Z,27.20
2018-08-11T10:55:24.013Z,25.70
2018-08-11T10:57:52.535Z,24.80
2018-08-11T11:00:21.053Z,24.20
2018-08-11T11:02:49.527Z,25.30
2018-08-11T11:05:18.170Z,25.40
2018-08-11T11:07:46.628Z,25.10
2018-08-11T11:10:15.083Z,24.00
2018-08-11T11:12:44.148Z,23.70
2018-08-11T11:15:12.574Z,24.10
2018-08-11T11:17:41.628Z,24.30
2018-08-11T11:20:11.646Z,26.40
2018-08-11T11:22:40.739Z,27.80
2018-08-11T11:25:09.287Z,27.10
2018-08-11T11:27:38.237Z,26.40
2018-08-11T11:30:07.171Z,26.70
2018-08-11T11:32:35.874Z,26.10
2018-08-11T11:35:04.362Z,25.40
2018-08-11T11:37:32.810Z,25.20
2018-08-11T11:40:01.341Z,24.70
2018-08-11T11:42:29.889Z,24.90
2018-08-11T11:44:58.319Z,24.70
2018-08-11T11:47:26.734Z,24.60
2018-08-11T11:49:55.294Z,24.80
2018-08-11T11:52:23.761Z,25.00
2018-08-11T11:54:52.259Z,24.30
2018-08-11T11:57:20.768Z,23.60
2018-08-11T11:59:49.269Z,23.60
2018-08-11T12:02:17.803Z,23.80
2018-08-11T12:04:46.332Z,23.80
2018-08-11T12:07:14.759Z,23.80
2018-08-11T12:09:43.191Z,23.70
2018-08-11T12:12:11.606Z,24.00
2018-08-11T12:14:40.064Z,24.20
2018-08-11T12:17:08.516Z,24.40
2018-08-11T12:19:36.949Z,24.60
2018-08-11T12:22:05.566Z,25.20
2018-08-11T12:24:34.022Z,25.20
2018-08-11T12:27:02.480Z,25.20
2018-08-11T12:29:30.917Z,24.80
2018-08-11T12:31:59.379Z,24.20
2018-08-11T12:34:34.248Z,24.90
2018-08-11T12:37:06.486Z,25.80
2018-08-11T12:39:34.916Z,25.80
2018-08-11T12:42:03.459Z,25.60
2018-08-11T12:44:31.924Z,25.10
2018-08-11T12:47:00.439Z,25.60
2018-08-11T12:49:29.198Z,25.80
2018-08-11T12:51:57.778Z,25.40
2018-08-11T12:54:26.316Z,25.10
2018-08-11T12:56:54.774Z,26.10
2018-08-11T12:59:23.255Z,25.50
2018-08-11T13:01:51.778Z,25.60
2018-08-11T13:04:20.283Z,24.70
2018-08-11T13:06:48.722Z,24.30
2018-08-11T13:09:17.200Z,23.80
2018-08-11T13:11:45.610Z,23.70
2018-08-11T13:14:14.173Z,24.40
2018-08-11T13:16:42.594Z,24.90
2018-08-11T13:19:11.134Z,25.80
2018-08-11T13:21:39.583Z,25.90
2018-08-11T13:24:08.094Z,26.20
2018-08-11T13:26:36.559Z,25.50
2018-08-11T13:29:05.123Z,25.10
2018-08-11T13:31:33.749Z,25.50
2018-08-11T13:34:02.311Z,25.80
2018-08-11T13:36:30.775Z,25.30
2018-08-11T13:38:59.275Z,24.80
2018-08-11T13:41:32.307Z,25.20
2018-08-11T13:44:00.727Z,25.70
2018-08-11T13:46:29.189Z,25.30
2018-08-11T13:48:57.615Z,24.70
2018-08-11T13:51:26.055Z,25.10
2018-08-11T13:53:54.487Z,25.10
2018-08-11T13:56:23.020Z,24.90
2018-08-11T13:58:51.482Z,24.70
2018-08-11T14:01:19.899Z,24.80
2018-08-11T14:03:48.439Z,26.20
2018-08-11T14:06:16.899Z,26.70
2018-08-11T14:08:45.379Z,27.00
2018-08-11T14:11:13.831Z,26.40
2018-08-11T14:13:42.400Z,25.80
2018-08-11T14:16:10.903Z,25.70
2018-08-11T14:18:39.364Z,24.70
2018-08-11T14:21:07.840Z,25.20
2018-08-11T14:23:36.333Z,25.80
2018-08-11T14:26:05.125Z,26.00
2018-08-11T14:28:33.650Z,26.30
2018-08-11T14:31:02.075Z,25.90
2018-08-11T14:33:30.615Z,25.40
2018-08-11T14:35:59.054Z,25.60
2018-08-11T14:38:27.623Z,25.60
2018-08-11T14:40:56.199Z,26.20
2018-08-11T14:43:31.531Z,25.80
2018-08-11T14:46:00.013Z,26.50
2018-08-11T14:48:28.487Z,26.40
2018-08-11T14:50:57.014Z,26.60
2018-08-11T14:53:25.479Z,26.90
2018-08-11T14:55:53.944Z,27.20
2018-08-11T14:58:22.421Z,26.80
2018-08-11T15:00:50.876Z,25.40
2018-08-11T15:03:19.372Z,25.20
2018-08-11T15:05:48.027Z,24.90
2018-08-11T15:08:16.456Z,25.30
2018-08-11T15:10:44.978Z,25.90
2018-08-11T15:13:13.461Z,25.80
2018-08-11T15:15:42.033Z,26.20
2018-08-11T15:18:10.536Z,26.30
2018-08-11T15:20:38.978Z,25.20
2018-08-11T15:23:07.647Z,25.00
2018-08-11T15:25:36.083Z,24.90
2018-08-11T15:28:04.581Z,25.00
2018-08-11T15:30:33.253Z,24.90
2018-08-11T15:33:01.742Z,25.20
2018-08-11T15:35:30.253Z,25.70
2018-08-11T15:37:58.706Z,25.90
2018-08-11T15:40:27.130Z,25.60
2018-08-11T15:42:55.668Z,25.40
2018-08-11T15:45:24.116Z,25.90
2018-08-11T15:47:52.656Z,26.50
2018-08-11T15:50:21.089Z,26.60
2018-08-11T15:52:49.567Z,26.20
2018-08-11T15:55:18.003Z,25.70
2018-08-11T15:57:46.483Z,25.40
2018-08-11T16:00:14.908Z,25.20
2018-08-11T16:02:43.463Z,25.30
2018-08-11T16:05:11.956Z,25.70
2018-08-11T16:07:40.402Z,25.30
2018-08-11T16:10:09.063Z,24.80
2018-08-11T16:12:37.481Z,25.20
2018-08-11T16:15:06.036Z,25.90
2018-08-11T16:17:34.478Z,27.30
2018-08-11T16:20:03.003Z,26.40
2018-08-11T16:22:31.503Z,26.60
2018-08-11T16:25:00.039Z,26.50
2018-08-11T16:27:28.466Z,25.30
2018-08-11T16:29:56.927Z,25.50
2018-08-11T16:32:25.441Z,25.50
2018-08-11T16:34:53.927Z,25.10
2018-08-11T16:37:22.468Z,25.00
2018-08-11T16:39:50.952Z,24.90
2018-08-11T16:42:19.440Z,24.70
2018-08-11T16:44:47.900Z,24.50
2018-08-11T16:47:16.351Z,24.70
2018-08-11T16:49:44.800Z,24.50
2018-08-11T16:52:13.251Z,24.90
2018-08-11T16:54:41.716Z,24.80
2018-08-11T16:57:10.181Z,24.50
2018-08-11T16:59:38.629Z,24.50
2018-08-11T17:02:07.235Z,24.40
2018-08-11T17:04:35.678Z,24.50
2018-08-11T17:07:04.407Z,24.50
2018-08-11T17:09:32.835Z,24.30
2018-08-11T17:12:01.327Z,24.10
2018-08-11T17:14:29.761Z,24.10
2018-08-11T17:16:58.222Z,24.30
2018-08-11T17:19:26.727Z,24.40
2018-08-11T17:21:55.168Z,24.20
2018-08-11T17:24:23.624Z,24.10
2018-08-11T17:26:52.072Z,24.10
2018-08-11T17:29:20.612Z,24.40
2018-08-11T17:31:49.197Z,24.50
2018-08-11T17:34:18.353Z,24.60
2018-08-11T17:36:46.817Z,24.70
2018-08-11T17:39:15.284Z,24.50
2018-08-11T17:41:43.771Z,24.10
2018-08-11T17:44:12.321Z,24.00
2018-08-11T17:46:40.782Z,23.80
2018-08-11T17:49:09.314Z,23.70
2018-08-11T17:51:37.692Z,23.50
2018-08-11T17:54:06.420Z,23.30
2018-08-11T17:56:34.981Z,23.20
2018-08-11T17:59:03.611Z,23.20
2018-08-11T18:01:38.532Z,23.20
2018-08-11T18:04:07.244Z,23.10
2018-08-11T18:06:35.771Z,23.00
2018-08-11T18:09:07.035Z,22.90
2018-08-11T18:11:35.938Z,23.00
2018-08-11T18:14:04.610Z,22.90
2018-08-11T18:16:33.099Z,22.90
2018-08-11T18:19:01.572Z,22.80
2018-08-11T18:21:30.042Z,23.10
2018-08-11T18:23:58.472Z,22.90
2018-08-11T18:26:27.007Z,22.70
2018-08-11T18:28:55.465Z,22.70
2018-08-11T18:31:23.999Z,22.60
2018-08-11T18:33:53.320Z,22.60
2018-08-11T18:36:21.804Z,22.50
2018-08-11T18:38:50.427Z,22.40
2018-08-11T18:41:19.128Z,22.50
2018-08-11T18:43:47.592Z,22.50
2018-08-11T18:46:16.054Z,22.50
2018-08-11T18:48:44.641Z,22.30
2018-08-11T18:51:13.121Z,22.40
2018-08-11T18:53:41.580Z,22.40
2018-08-11T18:56:10.048Z,22.50
2018-08-11T18:58:38.501Z,22.40
2018-08-11T19:01:06.950Z,22.40
2018-08-11T19:03:35.491Z,22.50
2018-08-11T19:06:03.947Z,22.20
2018-08-11T19:08:32.550Z,22.10
2018-08-11T19:11:01.000Z,22.20
2018-08-11T19:13:29.472Z,22.20
2018-08-11T19:15:58.027Z,22.20
2018-08-11T19:18:26.482Z,22.30
2018-08-11T19:20:54.920Z,22.30
2018-08-11T19:23:23.380Z,22.30
2018-08-11T19:25:51.854Z,22.20
2018-08-11T19:28:20.323Z,22.20
2018-08-11T19:30:48.764Z,22.30
2018-08-11T19:33:17.215Z,22.20
2018-08-11T19:35:45.636Z,22.20
2018-08-11T19:38:14.195Z,22.40
2018-08-11T19:40:42.688Z,22.40
2018-08-11T19:43:11.188Z,22.40
2018-08-11T19:45:39.657Z,22.40
2018-08-11T19:48:08.244Z,22.30
2018-08-11T19:50:36.820Z,22.10
2018-08-11T19:53:05.331Z,22.10
2018-08-11T19:55:33.895Z,22.00
2018-08-11T19:58:02.332Z,21.90
2018-08-11T20:00:30.847Z,22.20
2018-08-11T20:02:59.511Z,22.30
2018-08-11T20:05:28.212Z,22.30
2018-08-11T20:07:56.658Z,22.30
2018-08-11T20:10:25.100Z,22.20
2018-08-11T20:12:53.556Z,22.20
2018-08-11T20:15:21.996Z,22.20
2018-08-11T20:17:50.526Z,22.10
2018-08-11T20:20:19.062Z,22.00
2018-08-11T20:22:47.715Z,22.00
2018-08-11T20:25:16.184Z,21.90
2018-08-11T20:27:44.640Z,21.90
2018-08-11T20:30:13.082Z,21.90
2018-08-11T20:32:48.241Z,21.80
2018-08-11T20:35:16.751Z,21.70
2018-08-11T20:37:45.239Z,21.70
2018-08-11T20:40:13.678Z,21.60
2018-08-11T20:42:43.092Z,21.50
2018-08-11T20:45:11.584Z,21.40
2018-08-11T20:47:40.012Z,21.30
2018-08-11T20:50:09.205Z,21.20
2018-08-11T20:52:37.711Z,21.20
2018-08-11T20:55:07.281Z,21.10
2018-08-11T20:57:35.694Z,21.10
2018-08-11T21:00:07.035Z,21.10
2018-08-11T21:02:35.491Z,21.10
2018-08-11T21:05:06.583Z,21.10
2018-08-11T21:07:35.188Z,21.10
2018-08-11T21:10:04.183Z,21.00
2018-08-11T21:12:32.645Z,21.00
2018-08-11T21:15:01.100Z,20.90
2018-08-11T21:17:29.644Z,20.90
2018-08-11T21:19:58.184Z,20.50
2018-08-11T21:22:26.751Z,20.30
2018-08-11T21:24:55.326Z,20.50
2018-08-11T21:27:24.047Z,20.80
2018-08-11T21:29:52.574Z,20.80
2018-08-11T21:32:21.040Z,20.80
2018-08-11T21:34:50.214Z,20.60
2018-08-11T21:37:18.675Z,20.40
2018-08-11T21:39:47.114Z,20.30
2018-08-11T21:42:15.616Z,20.30
2018-08-11T21:44:44.073Z,20.20
2018-08-11T21:47:12.674Z,20.20
2018-08-11T21:49:41.136Z,20.10
2018-08-11T21:52:09.606Z,20.00
2018-08-11T21:54:38.033Z,20.00
2018-08-11T21:57:06.911Z,20.20
2018-08-11T21:59:35.505Z,20.20
2018-08-11T22:02:04.043Z,20.10
2018-08-11T22:04:32.540Z,19.90
2018-08-11T22:07:02.758Z,19.80
2018-08-11T22:09:31.255Z,19.60
2018-08-11T22:11:59.843Z,19.60
2018-08-11T22:14:28.285Z,19.60
2018-08-11T22:16:56.728Z,19.60
2018-08-11T22:19:25.176Z,19.50
2018-08-11T22:21:53.639Z,19.30
2018-08-11T22:24:22.088Z,19.30
2018-08-11T22:26:50.627Z,19.30
2018-08-11T22:29:19.126Z,19.30
2018-08-11T22:31:47.534Z,19.30
2018-08-11T22:34:16.005Z,18.90
2018-08-11T22:36:44.470Z,18.70
2018-08-11T22:39:12.923Z,18.70
2018-08-11T22:41:41.339Z,18.70
2018-08-11T22:44:09.798Z,18.60
2018-08-11T22:46:38.268Z,18.60
2018-08-11T22:49:06.719Z,18.80
2018-08-11T22:51:35.256Z,18.90
2018-08-11T22:54:04.219Z,18.70
2018-08-11T22:56:32.778Z,18.70
2018-08-11T22:59:01.201Z,18.40
2018-08-11T23:01:29.848Z,18.40
2018-08-11T23:03:58.330Z,18.50
2018-08-11T23:06:26.761Z,18.50
2018-08-11T23:08:55.206Z,18.60
2018-08-11T23:11:23.784Z,18.60
2018-08-11T23:13:52.484Z,18.60
2018-08-11T23:16:20.944Z,18.60
2018-08-11T23:18:49.548Z,18.20
2018-08-11T23:21:17.981Z,18.00
2018-08-11T23:23:46.455Z,18.20
2018-08-11T23:26:14.909Z,18.40
2018-08-11T23:28:43.367Z,18.60
2018-08-11T23:31:11.915Z,18.50
2018-08-11T23:33:40.338Z,18.20
2018-08-11T23:36:08.968Z,18.10
2018-08-11T23:38:37.412Z,18.10
2018-08-11T23:41:05.851Z,18.20
2018-08-11T23:43:34.302Z,18.30
2018-08-11T23:46:02.791Z,18.20
2018-08-11T23:48:31.319Z,18.00
2018-08-11T23:50:59.798Z,18.00
2018-08-11T23:53:28.195Z,17.90
2018-08-11T23:55:56.647Z,17.70
2018-08-11T23:58:25.190Z,17.60
